VAM Template | Jonatha

Virtual Airlines Manager! A new look to your va. By: Jonatha Silva




 METAR ET TAF INFORMATION
METAR FOR LPMA
ADDS - METARS form results

(0751 UTC 08 July 2020)
Data provider http://aviationweather.gov/metar/data/
 
METAR text: LPMA 080730Z VRB07KT 9999 FEW015 21/16 Q1019
Conditions at: LPMA (FUNCHAL/MADEIRA , PT) observed 0730 UTC 08 July 2020
Temperature: 21.0°C (70°F)
Dewpoint: 16.0°C (61°F) [RH = 73%]
Pressure (altimeter): 30.09 inches Hg (1019.0 mb)
Winds: variable direction winds at 8 MPH (7 knots; 3.6 m/s)
Visibility: 6 or more miles (10+ km)
Ceiling: at least 12,000 feet AGL
Clouds: few clouds at 1500 feet AGL
Weather: no significant weather observed at this time

METAR text: LPMA 080700Z 02009KT 9999 FEW015 20/16 Q1018
Conditions at: LPMA (FUNCHAL/MADEIRA , PT) observed 0700 UTC 08 July 2020
Temperature: 20.0°C (68°F)
Dewpoint: 16.0°C (61°F) [RH = 78%]
Pressure (altimeter): 30.06 inches Hg (1018.0 mb)
Winds: from the NNE (20 degrees) at 10 MPH (9 knots; 4.6 m/s)
Visibility: 6 or more miles (10+ km)
Ceiling: at least 12,000 feet AGL
Clouds: few clouds at 1500 feet AGL
Weather: no significant weather observed at this time

Forecast for: LPMA (FUNCHAL/MADEIRA , PT)
Text: TAF LPMA 080500Z 0806/0906 01013KT 9999 SCT015
Forecast period: 0600 UTC 08 July 2020 to 0600 UTC 09 July 2020
Forecast type: FROM: standard forecast or significant change
Winds: from the N (10 degrees) at 15 MPH (13 knots; 6.7 m/s)
Visibility: 6 or more miles 10+ km)
Ceiling: at least 12,000 feet AGL
Clouds: scattered clouds at 1500 feet AGL
Weather: no significant weather forecast for this period
Text: TEMPO 0806/0906 VRB08KT
Forecast period: 0600 UTC 08 July 2020 to 0600 UTC 09 July 2020
Forecast type: TEMPORARY: The following changes expected for less than half the time period
Winds: variable direction winds at 9 MPH (8 knots; 4.1 m/s)
Visibility: missing
Ceiling: unknown
Clouds: missing
Weather: no significant weather forecast for this period
Text: PROB40
Forecast period: 0600 to 2200 UTC 08 July 2020
Forecast type: TEMPORARY: The following changes expected for less than half the time period
Winds: from the N (10 degrees) at 17 MPH (15 knots; 7.7 m/s)
gusting to 32 MPH (28 knots; 14.4 m/s)
Visibility: missing
Ceiling: unknown
Clouds: missing
Weather: no significant weather forecast for this period

 AÉROPORT DE AÉROPORT

 INFORMATIONS DE PISTE
Piste 05 Longueur de la piste 9110 ft Largeur de la piste 148 ft
Élévation de la piste 147 ft Seuil de la piste déplacés 480 ft Runway heading 45
Piste 23 Longueur de la piste 9110 ft Largeur de la piste 148 ft
Élévation de la piste 192 ft Seuil de la piste déplacés 490 ft Runway heading 225

 AÉROPORT FRÉQUENCES
Type APP Nom APP Féquence 119.2 MHZ
Type TWR Nom TWR Féquence 118.35 MHZ

 SIDA DE NAVIGATION
Type VOR-DME Nom Madeira Féquence 112200 KHZ
Type NDB Nom Madeira Féquence 318 KHZ